DQA2118 VOBL-VOBL
Flight info
| Callsign | DQA2118 |
|---|---|
| Flight time | 0h 23m |
| Altitude | 8000 |
| Route | BL961 DCT BL109 DCT BL454 DCT BL553 DCT BL962 |
| Aircraft | DHC6/L-SDFGR/C |
Departure
| Time | 2026-05-06 18:19 |
|---|---|
| Airport | Kempegowda International Airport Bengaluru (VOBL) |
Arrival
| Time | 2026-05-06 18:42 |
|---|---|
| Airport | Kempegowda International Airport Bengaluru (VOBL) |
| Time | Latitude | Longitude | Altitude | Speed | Heading |
|---|---|---|---|---|---|
| 2026-05-06 17:36 | 13.20376 | 77.69744 | 2980 ft | 0 kts | 0° |
| 2026-05-06 18:02 | 13.20364 | 77.69744 | 2980 ft | 2 kts | 0° |
| 2026-05-06 18:03 | 13.20349 | 77.69743 | 2979 ft | 2 kts | 0° |
| 2026-05-06 18:03 | 13.20334 | 77.69743 | 2978 ft | 2 kts | 0° |
| 2026-05-06 18:03 | 13.20319 | 77.69743 | 2977 ft | 2 kts | 0° |
| 2026-05-06 18:03 | 13.20310 | 77.69744 | 2977 ft | 2 kts | 351° |
| 2026-05-06 18:04 | 13.20297 | 77.69750 | 2976 ft | 2 kts | 316° |
| 2026-05-06 18:04 | 13.20289 | 77.69763 | 2975 ft | 2 kts | 282° |
| 2026-05-06 18:04 | 13.20289 | 77.69770 | 2975 ft | 0 kts | 270° |
| 2026-05-06 18:07 | 13.20289 | 77.69769 | 2975 ft | 0 kts | 270° |
| 2026-05-06 18:07 | 13.20289 | 77.69761 | 2975 ft | 1 kts | 270° |
| 2026-05-06 18:07 | 13.20289 | 77.69744 | 2975 ft | 2 kts | 270° |
| 2026-05-06 18:08 | 13.20289 | 77.69718 | 2975 ft | 4 kts | 271° |
| 2026-05-06 18:08 | 13.20290 | 77.69682 | 2976 ft | 5 kts | 272° |
| 2026-05-06 18:08 | 13.20292 | 77.69641 | 2977 ft | 5 kts | 270° |
| 2026-05-06 18:08 | 13.20292 | 77.69604 | 2979 ft | 5 kts | 269° |
| 2026-05-06 18:09 | 13.20291 | 77.69592 | 2979 ft | 5 kts | 269° |
| 2026-05-06 18:09 | 13.20291 | 77.69552 | 2981 ft | 7 kts | 271° |
| 2026-05-06 18:09 | 13.20292 | 77.69495 | 2983 ft | 8 kts | 269° |
| 2026-05-06 18:09 | 13.20292 | 77.69426 | 2986 ft | 10 kts | 271° |
| 2026-05-06 18:10 | 13.20297 | 77.69351 | 2989 ft | 10 kts | 295° |
| 2026-05-06 18:10 | 13.20362 | 77.69332 | 2992 ft | 10 kts | 358° |
| 2026-05-06 18:10 | 13.20428 | 77.69331 | 2995 ft | 8 kts | 1° |
| 2026-05-06 18:10 | 13.20449 | 77.69332 | 2996 ft | 0 kts | 0° |
| 2026-05-06 18:12 | 13.20452 | 77.69332 | 2996 ft | 0 kts | 0° |
| 2026-05-06 18:12 | 13.20456 | 77.69332 | 2996 ft | 1 kts | 0° |
| 2026-05-06 18:12 | 13.20477 | 77.69332 | 2997 ft | 4 kts | 360° |
| 2026-05-06 18:12 | 13.20505 | 77.69331 | 2998 ft | 3 kts | 0° |
| 2026-05-06 18:13 | 13.20528 | 77.69334 | 2998 ft | 3 kts | 16° |
| 2026-05-06 18:13 | 13.20549 | 77.69346 | 2998 ft | 3 kts | 39° |
| 2026-05-06 18:13 | 13.20570 | 77.69373 | 2997 ft | 6 kts | 65° |
| 2026-05-06 18:13 | 13.20593 | 77.69418 | 2996 ft | 7 kts | 59° |
| 2026-05-06 18:14 | 13.20607 | 77.69442 | 2996 ft | 0 kts | 60° |
| 2026-05-06 18:15 | 13.20611 | 77.69450 | 2996 ft | 3 kts | 60° |
| 2026-05-06 18:16 | 13.20632 | 77.69486 | 2997 ft | 8 kts | 62° |
| 2026-05-06 18:16 | 13.20670 | 77.69554 | 2997 ft | 13 kts | 48° |
| 2026-05-06 18:16 | 13.20707 | 77.69616 | 2996 ft | 7 kts | 94° |
| 2026-05-06 18:16 | 13.20707 | 77.69621 | 2996 ft | 0 kts | 90° |
| 2026-05-06 18:18 | 13.20707 | 77.69624 | 2996 ft | 1 kts | 90° |
| 2026-05-06 18:18 | 13.20707 | 77.69656 | 2995 ft | 12 kts | 89° |
| 2026-05-06 18:18 | 13.20711 | 77.69819 | 2993 ft | 31 kts | 95° |
| 2026-05-06 18:19 | 13.20696 | 77.70125 | 2990 ft | 67 kts | 90° |
| 2026-05-06 18:19 | 13.20694 | 77.70750 | 3066 ft | 98 kts | 90° |
| 2026-05-06 18:19 | 13.20648 | 77.71438 | 3396 ft | 92 kts | 92° |
| 2026-05-06 18:19 | 13.20608 | 77.72083 | 3659 ft | 89 kts | 90° |
| 2026-05-06 18:20 | 13.20569 | 77.72714 | 3873 ft | 96 kts | 90° |
| 2026-05-06 18:20 | 13.20558 | 77.73424 | 4032 ft | 103 kts | 89° |
| 2026-05-06 18:20 | 13.20585 | 77.74175 | 4221 ft | 106 kts | 89° |
| 2026-05-06 18:20 | 13.20610 | 77.74937 | 4418 ft | 107 kts | 89° |
| 2026-05-06 18:21 | 13.20650 | 77.75689 | 4605 ft | 108 kts | 78° |
| 2026-05-06 18:21 | 13.21100 | 77.76297 | 4789 ft | 112 kts | 33° |
| 2026-05-06 18:21 | 13.21872 | 77.76409 | 4973 ft | 117 kts | 350° |
| 2026-05-06 18:21 | 13.22544 | 77.75957 | 5153 ft | 119 kts | 321° |
| 2026-05-06 18:22 | 13.23295 | 77.75695 | 5332 ft | 112 kts | 357° |
| 2026-05-06 18:22 | 13.24055 | 77.75616 | 5490 ft | 108 kts | 358° |
| 2026-05-06 18:22 | 13.24793 | 77.75543 | 5629 ft | 106 kts | 358° |
| 2026-05-06 18:22 | 13.25543 | 77.75471 | 5789 ft | 115 kts | 359° |
| 2026-05-06 18:23 | 13.26320 | 77.75394 | 6343 ft | 113 kts | 358° |
| 2026-05-06 18:23 | 13.27068 | 77.75320 | 6924 ft | 106 kts | 358° |
| 2026-05-06 18:23 | 13.27749 | 77.75250 | 7217 ft | 99 kts | 359° |
| 2026-05-06 18:23 | 13.28444 | 77.75181 | 7312 ft | 100 kts | 358° |
| 2026-05-06 18:24 | 13.29149 | 77.75111 | 7341 ft | 104 kts | 358° |
| 2026-05-06 18:24 | 13.29874 | 77.75011 | 7381 ft | 108 kts | 344° |
| 2026-05-06 18:24 | 13.30433 | 77.74487 | 7432 ft | 114 kts | 299° |
| 2026-05-06 18:24 | 13.30557 | 77.73686 | 7492 ft | 115 kts | 273° |
| 2026-05-06 18:25 | 13.30570 | 77.72857 | 7549 ft | 116 kts | 272° |
| 2026-05-06 18:25 | 13.30583 | 77.72022 | 7605 ft | 116 kts | 272° |
| 2026-05-06 18:25 | 13.30596 | 77.71201 | 7661 ft | 116 kts | 272° |
| 2026-05-06 18:25 | 13.30611 | 77.70373 | 7718 ft | 116 kts | 273° |
| 2026-05-06 18:26 | 13.30626 | 77.69544 | 7773 ft | 116 kts | 273° |
| 2026-05-06 18:26 | 13.30642 | 77.68720 | 7826 ft | 116 kts | 273° |
| 2026-05-06 18:26 | 13.30659 | 77.67887 | 7882 ft | 116 kts | 273° |
| 2026-05-06 18:26 | 13.30677 | 77.67055 | 7935 ft | 116 kts | 273° |
| 2026-05-06 18:27 | 13.30696 | 77.66221 | 7984 ft | 117 kts | 273° |
| 2026-05-06 18:27 | 13.30716 | 77.65375 | 7997 ft | 120 kts | 273° |
| 2026-05-06 18:27 | 13.30737 | 77.64500 | 7998 ft | 124 kts | 273° |
| 2026-05-06 18:27 | 13.30760 | 77.63601 | 7996 ft | 127 kts | 273° |
| 2026-05-06 18:28 | 13.30783 | 77.62696 | 7996 ft | 129 kts | 273° |
| 2026-05-06 18:28 | 13.30808 | 77.61762 | 7995 ft | 131 kts | 273° |
| 2026-05-06 18:28 | 13.30824 | 77.60821 | 7991 ft | 132 kts | 266° |
| 2026-05-06 18:28 | 13.30462 | 77.59965 | 7997 ft | 133 kts | 239° |
| 2026-05-06 18:29 | 13.29994 | 77.59168 | 7920 ft | 129 kts | 238° |
| 2026-05-06 18:29 | 13.29524 | 77.58373 | 7751 ft | 131 kts | 238° |
| 2026-05-06 18:29 | 13.29048 | 77.57567 | 7591 ft | 132 kts | 238° |
| 2026-05-06 18:29 | 13.28563 | 77.56749 | 7440 ft | 132 kts | 238° |
| 2026-05-06 18:30 | 13.28083 | 77.55938 | 7293 ft | 131 kts | 238° |
| 2026-05-06 18:30 | 13.27610 | 77.55140 | 7149 ft | 131 kts | 238° |
| 2026-05-06 18:30 | 13.27133 | 77.54336 | 7004 ft | 131 kts | 238° |
| 2026-05-06 18:30 | 13.26656 | 77.53535 | 6855 ft | 128 kts | 238° |
| 2026-05-06 18:31 | 13.26197 | 77.52763 | 6629 ft | 128 kts | 237° |
| 2026-05-06 18:31 | 13.25732 | 77.51979 | 6387 ft | 129 kts | 237° |
| 2026-05-06 18:31 | 13.25263 | 77.51192 | 6160 ft | 129 kts | 237° |
| 2026-05-06 18:31 | 13.24793 | 77.50403 | 5969 ft | 128 kts | 237° |
| 2026-05-06 18:32 | 13.24329 | 77.49624 | 5789 ft | 128 kts | 237° |
| 2026-05-06 18:32 | 13.23869 | 77.48852 | 5617 ft | 127 kts | 237° |
| 2026-05-06 18:32 | 13.23407 | 77.48078 | 5444 ft | 127 kts | 237° |
| 2026-05-06 18:32 | 13.22949 | 77.47312 | 5271 ft | 126 kts | 236° |
| 2026-05-06 18:33 | 13.22490 | 77.46544 | 5097 ft | 126 kts | 236° |
| 2026-05-06 18:33 | 13.21963 | 77.45862 | 4994 ft | 116 kts | 209° |
| 2026-05-06 18:33 | 13.21275 | 77.45556 | 4982 ft | 104 kts | 180° |
| 2026-05-06 18:33 | 13.20635 | 77.45777 | 5052 ft | 96 kts | 135° |
| 2026-05-06 18:34 | 13.20362 | 77.46388 | 5112 ft | 93 kts | 91° |
| 2026-05-06 18:34 | 13.20365 | 77.47040 | 5168 ft | 92 kts | 90° |
| 2026-05-06 18:34 | 13.20371 | 77.47723 | 5242 ft | 98 kts | 90° |
| 2026-05-06 18:34 | 13.20375 | 77.48141 | 5288 ft | 102 kts | 90° |
| 2026-05-06 18:35 | 13.20383 | 77.48859 | 5348 ft | 95 kts | 90° |
| 2026-05-06 18:35 | 13.20389 | 77.49451 | 5342 ft | 78 kts | 90° |
| 2026-05-06 18:35 | 13.20394 | 77.50074 | 5448 ft | 94 kts | 90° |
| 2026-05-06 18:35 | 13.20400 | 77.50778 | 5537 ft | 103 kts | 89° |
| 2026-05-06 18:36 | 13.20408 | 77.51543 | 5618 ft | 109 kts | 89° |
| 2026-05-06 18:36 | 13.20417 | 77.52348 | 5647 ft | 116 kts | 89° |
| 2026-05-06 18:36 | 13.20428 | 77.53151 | 5620 ft | 110 kts | 89° |
| 2026-05-06 18:36 | 13.20439 | 77.53900 | 5559 ft | 99 kts | 89° |
| 2026-05-06 18:37 | 13.20449 | 77.54585 | 5494 ft | 95 kts | 89° |
| 2026-05-06 18:37 | 13.20456 | 77.55273 | 5432 ft | 99 kts | 89° |
| 2026-05-06 18:37 | 13.20465 | 77.56010 | 5355 ft | 107 kts | 89° |
| 2026-05-06 18:37 | 13.20475 | 77.56765 | 5240 ft | 101 kts | 89° |
| 2026-05-06 18:38 | 13.20486 | 77.57448 | 5114 ft | 89 kts | 89° |
| 2026-05-06 18:38 | 13.20494 | 77.58031 | 4989 ft | 76 kts | 90° |
| 2026-05-06 18:38 | 13.20500 | 77.58646 | 4935 ft | 94 kts | 90° |
| 2026-05-06 18:38 | 13.20508 | 77.59360 | 4827 ft | 104 kts | 90° |
| 2026-05-06 18:39 | 13.20518 | 77.60125 | 4685 ft | 106 kts | 90° |
| 2026-05-06 18:39 | 13.20529 | 77.60815 | 4544 ft | 94 kts | 90° |
| 2026-05-06 18:39 | 13.20537 | 77.61508 | 4443 ft | 99 kts | 90° |
| 2026-05-06 18:40 | 13.20548 | 77.62543 | 4232 ft | 105 kts | 89° |
| 2026-05-06 18:40 | 13.20558 | 77.63282 | 4082 ft | 101 kts | 89° |
| 2026-05-06 18:40 | 13.20612 | 77.63995 | 3939 ft | 101 kts | 81° |
| 2026-05-06 18:40 | 13.20709 | 77.64690 | 3828 ft | 92 kts | 84° |
| 2026-05-06 18:41 | 13.20742 | 77.65274 | 3721 ft | 78 kts | 89° |
| 2026-05-06 18:41 | 13.20745 | 77.65845 | 3640 ft | 80 kts | 91° |
| 2026-05-06 18:41 | 13.20740 | 77.66389 | 3500 ft | 74 kts | 90° |
| 2026-05-06 18:41 | 13.20724 | 77.66961 | 3457 ft | 80 kts | 90° |
| 2026-05-06 18:42 | 13.20727 | 77.67519 | 3290 ft | 81 kts | 90° |
| 2026-05-06 18:42 | 13.20723 | 77.68144 | 3172 ft | 92 kts | 91° |
| 2026-05-06 18:42 | 13.20715 | 77.68746 | 3027 ft | 76 kts | 90° |
| 2026-05-06 18:42 | 13.20711 | 77.69206 | 3004 ft | 47 kts | 90° |
| 2026-05-06 18:43 | 13.20706 | 77.69441 | 2999 ft | 28 kts | 92° |
| 2026-05-06 18:43 | 13.20704 | 77.69620 | 2996 ft | 22 kts | 90° |
| 2026-05-06 18:43 | 13.20702 | 77.69772 | 2993 ft | 20 kts | 90° |
| 2026-05-06 18:43 | 13.20703 | 77.69916 | 2992 ft | 19 kts | 89° |
| 2026-05-06 18:44 | 13.20697 | 77.70052 | 2991 ft | 19 kts | 112° |
| 2026-05-06 18:44 | 13.20649 | 77.70037 | 2990 ft | 10 kts | 249° |
| 2026-05-06 18:44 | 13.20608 | 77.69959 | 2989 ft | 14 kts | 237° |
| 2026-05-06 18:44 | 13.20533 | 77.69966 | 2986 ft | 16 kts | 98° |
| 2026-05-06 18:45 | 13.20531 | 77.70084 | 2987 ft | 16 kts | 90° |
| 2026-05-06 18:45 | 13.20530 | 77.70201 | 2987 ft | 17 kts | 90° |
| 2026-05-06 18:45 | 13.20529 | 77.70327 | 2985 ft | 12 kts | 89° |
| 2026-05-06 18:45 | 13.20514 | 77.70383 | 2984 ft | 9 kts | 145° |
| 2026-05-06 18:46 | 13.20434 | 77.70392 | 2982 ft | 14 kts | 180° |
| 2026-05-06 18:46 | 13.20319 | 77.70390 | 2980 ft | 16 kts | 194° |
| 2026-05-06 18:46 | 13.20285 | 77.70294 | 2980 ft | 14 kts | 270° |
| 2026-05-06 18:46 | 13.20286 | 77.70194 | 2980 ft | 13 kts | 271° |
| 2026-05-06 18:47 | 13.20286 | 77.70107 | 2979 ft | 10 kts | 270° |
| 2026-05-06 18:47 | 13.20286 | 77.70016 | 2979 ft | 15 kts | 270° |
| 2026-05-06 18:47 | 13.20288 | 77.69889 | 2976 ft | 19 kts | 271° |
| 2026-05-06 18:47 | 13.20289 | 77.69766 | 2975 ft | 10 kts | 270° |
| 2026-05-06 18:48 | 13.20305 | 77.69740 | 2976 ft | 4 kts | 17° |
| 2026-05-06 18:48 | 13.20342 | 77.69744 | 2978 ft | 6 kts | 358° |
| 2026-05-06 18:48 | 13.20370 | 77.69744 | 2980 ft | 0 kts | 1° |
| 2026-05-06 18:48 | 13.20372 | 77.69744 | 2980 ft | 0 kts | 1° |
| 2026-05-06 18:49 | 13.20377 | 77.69744 | 2981 ft | 0 kts | 1° |